createdAt,value
2023-05-11T00:00:39.491Z,16.73
2023-05-11T00:03:07.286Z,17.43
2023-05-11T00:05:34.993Z,19.70
2023-05-11T00:08:02.606Z,18.83
2023-05-11T00:10:30.265Z,17.50
2023-05-11T00:12:57.795Z,17.73
2023-05-11T00:15:25.387Z,19.00
2023-05-11T00:17:53.028Z,17.33
2023-05-11T00:20:20.731Z,17.93
2023-05-11T00:22:48.462Z,17.17
2023-05-11T00:25:16.016Z,20.53
2023-05-11T00:27:46.373Z,17.67
2023-05-11T00:30:14.765Z,18.33
2023-05-11T00:32:42.720Z,17.03
2023-05-11T00:35:13.517Z,16.23
2023-05-11T00:37:41.478Z,16.70
2023-05-11T00:40:09.260Z,20.37
2023-05-11T00:42:36.938Z,15.73
2023-05-11T00:45:04.598Z,17.90
2023-05-11T00:47:32.168Z,16.10
2023-05-11T00:49:59.755Z,17.63
2023-05-11T00:52:27.428Z,17.00
2023-05-11T00:54:54.960Z,16.67
2023-05-11T00:57:22.627Z,16.50
2023-05-11T00:59:50.196Z,16.67
2023-05-11T01:02:18.270Z,15.27
2023-05-11T01:04:46.200Z,16.17
2023-05-11T01:07:19.914Z,17.00
2023-05-11T01:09:56.420Z,17.33
2023-05-11T01:12:42.425Z,16.77
2023-05-11T01:15:15.009Z,17.57
2023-05-11T01:17:49.771Z,18.80
2023-05-11T01:20:24.381Z,21.43
2023-05-11T01:22:51.923Z,23.17
2023-05-11T01:25:38.014Z,22.87
2023-05-11T01:28:24.202Z,21.37
2023-05-11T01:31:08.087Z,24.10
2023-05-11T01:33:37.787Z,27.00
2023-05-11T01:36:06.799Z,30.63
2023-05-11T01:38:35.348Z,28.50
2023-05-11T01:41:09.304Z,20.80
2023-05-11T01:43:37.395Z,26.90
2023-05-11T01:46:05.798Z,27.00
2023-05-11T01:48:36.329Z,26.07
2023-05-11T01:51:04.118Z,26.07
2023-05-11T01:53:36.076Z,25.37
2023-05-11T01:56:04.397Z,25.97
2023-05-11T01:58:33.424Z,26.77
2023-05-11T02:01:01.698Z,22.83
2023-05-11T02:03:30.212Z,23.17
2023-05-11T02:05:58.837Z,22.40
2023-05-11T02:08:27.754Z,23.93
2023-05-11T02:10:55.886Z,24.50
2023-05-11T02:13:23.740Z,22.83
2023-05-11T02:15:52.606Z,23.57
2023-05-11T02:18:20.840Z,20.93
2023-05-11T02:20:48.833Z,23.03
2023-05-11T02:23:17.766Z,23.70
2023-05-11T02:25:45.541Z,27.20
2023-05-11T02:28:13.094Z,29.10
2023-05-11T02:30:45.331Z,29.77
2023-05-11T02:33:15.435Z,31.00
2023-05-11T02:35:43.779Z,30.97
2023-05-11T02:38:11.840Z,30.67
2023-05-11T02:40:49.843Z,31.57
2023-05-11T02:43:21.255Z,36.87
2023-05-11T02:45:50.963Z,34.20
2023-05-11T02:48:27.088Z,36.13
2023-05-11T02:50:55.846Z,36.47
2023-05-11T02:53:24.894Z,35.37
2023-05-11T02:55:52.545Z,28.33
2023-05-11T02:58:20.417Z,32.13
2023-05-11T03:00:48.668Z,34.83
2023-05-11T03:03:16.646Z,36.03
2023-05-11T03:05:44.291Z,40.30
2023-05-11T03:08:11.836Z,42.43
2023-05-11T03:10:39.866Z,39.13
2023-05-11T03:13:08.168Z,39.40
2023-05-11T03:15:36.454Z,41.07
2023-05-11T03:18:04.840Z,38.93
2023-05-11T03:20:34.751Z,40.97
2023-05-11T03:23:02.541Z,39.00
2023-05-11T03:25:30.132Z,42.00
2023-05-11T03:27:57.989Z,42.17
2023-05-11T03:30:26.225Z,32.20
2023-05-11T03:32:53.849Z,35.73
2023-05-11T03:35:22.381Z,39.73
2023-05-11T03:37:51.471Z,35.03
2023-05-11T03:40:20.359Z,40.53
2023-05-11T03:42:48.675Z,38.77
2023-05-11T03:45:18.320Z,37.33
2023-05-11T03:47:47.390Z,32.67
2023-05-11T03:50:15.099Z,37.10
2023-05-11T03:52:44.098Z,33.03
2023-05-11T03:55:12.133Z,34.57
2023-05-11T03:57:40.267Z,31.40
2023-05-11T04:00:08.171Z,35.77
2023-05-11T04:02:36.102Z,34.10
2023-05-11T04:05:10.235Z,34.97
2023-05-11T04:07:38.999Z,37.13
2023-05-11T04:10:07.407Z,39.57
2023-05-11T04:12:35.018Z,42.30
2023-05-11T04:15:02.613Z,40.50
2023-05-11T04:17:30.200Z,37.77
2023-05-11T04:19:57.784Z,39.90
2023-05-11T04:22:25.397Z,39.57
2023-05-11T04:24:52.934Z,41.10
2023-05-11T04:27:20.491Z,43.93
2023-05-11T04:29:47.990Z,43.40
2023-05-11T04:32:15.610Z,51.30
2023-05-11T04:34:43.124Z,40.93
2023-05-11T04:37:10.696Z,40.57
2023-05-11T04:39:38.212Z,38.83
2023-05-11T04:42:07.166Z,42.07
2023-05-11T04:44:34.652Z,36.73
2023-05-11T04:47:02.255Z,40.23
2023-05-11T04:49:29.774Z,38.70
2023-05-11T04:51:57.322Z,38.97
2023-05-11T04:54:24.809Z,39.27
2023-05-11T04:56:52.407Z,43.23
2023-05-11T04:59:20.092Z,36.50
2023-05-11T05:01:47.699Z,40.50
2023-05-11T05:04:15.250Z,33.47
2023-05-11T05:06:42.838Z,35.73
2023-05-11T05:09:10.375Z,41.67
2023-05-11T05:11:37.960Z,38.80
2023-05-11T05:14:05.518Z,36.40
2023-05-11T05:16:33.404Z,36.97
2023-05-11T05:19:01.063Z,38.07
2023-05-11T05:21:28.734Z,37.93
2023-05-11T05:23:56.258Z,32.93
2023-05-11T05:26:23.923Z,36.07
2023-05-11T05:28:51.425Z,33.70
2023-05-11T05:31:18.972Z,36.50
2023-05-11T05:33:46.490Z,33.80
2023-05-11T05:36:14.114Z,37.10
2023-05-11T05:38:41.613Z,44.83
2023-05-11T05:41:09.215Z,42.07
2023-05-11T05:43:36.759Z,44.40
2023-05-11T05:46:04.331Z,42.83
2023-05-11T05:48:31.854Z,38.90
2023-05-11T05:50:59.820Z,41.73
2023-05-11T05:53:27.360Z,38.47
2023-05-11T05:55:54.883Z,37.73
2023-05-11T05:58:22.345Z,37.77
2023-05-11T06:00:50.052Z,40.30
2023-05-11T06:03:17.673Z,40.60
2023-05-11T06:05:45.281Z,38.93
2023-05-11T06:08:12.808Z,39.87
2023-05-11T06:10:40.409Z,44.07
2023-05-11T06:13:08.339Z,44.13
2023-05-11T06:15:36.012Z,43.77
2023-05-11T06:18:03.726Z,42.07
2023-05-11T06:20:32.438Z,43.80
2023-05-11T06:22:59.996Z,45.93
2023-05-11T06:25:27.561Z,51.90
2023-05-11T06:27:55.181Z,45.03
2023-05-11T06:30:22.748Z,53.40
2023-05-11T06:32:50.345Z,55.50
2023-05-11T06:35:18.119Z,49.87
2023-05-11T06:37:45.642Z,50.43
2023-05-11T06:40:13.235Z,51.00
2023-05-11T06:42:40.835Z,50.20
2023-05-11T06:45:08.979Z,46.93
2023-05-11T06:47:36.971Z,45.70
2023-05-11T06:50:04.788Z,45.37
2023-05-11T06:52:32.398Z,47.70
2023-05-11T06:54:59.950Z,45.30
2023-05-11T06:57:27.493Z,47.53
2023-05-11T06:59:55.111Z,48.50
2023-05-11T07:02:22.618Z,44.07
2023-05-11T07:04:50.333Z,43.53
2023-05-11T07:07:17.930Z,47.47
2023-05-11T07:09:45.584Z,45.63
2023-05-11T07:12:13.152Z,44.70
2023-05-11T07:14:40.706Z,45.33
2023-05-11T07:17:08.364Z,40.70
2023-05-11T07:19:36.053Z,43.60
2023-05-11T07:22:03.577Z,41.47
2023-05-11T07:24:31.155Z,38.63
2023-05-11T07:26:58.706Z,41.70
2023-05-11T07:29:26.269Z,35.83
2023-05-11T07:31:53.955Z,42.87
2023-05-11T07:34:21.649Z,39.83
2023-05-11T07:36:49.150Z,36.80
2023-05-11T07:39:16.712Z,38.70
2023-05-11T07:41:45.792Z,32.63
2023-05-11T07:44:13.438Z,36.83
2023-05-11T07:46:41.044Z,34.40
2023-05-11T07:51:41.986Z,30.30
2023-05-11T07:54:09.531Z,33.70
2023-05-11T07:56:37.228Z,31.37
2023-05-11T07:59:04.795Z,34.07
2023-05-11T08:01:32.346Z,31.70
2023-05-11T08:03:59.877Z,31.67
2023-05-11T08:06:27.508Z,34.50
2023-05-11T08:08:55.108Z,30.73
2023-05-11T08:11:22.729Z,27.53
2023-05-11T08:13:50.468Z,27.70
2023-05-11T08:16:18.130Z,25.37
2023-05-11T08:18:45.759Z,26.43
2023-05-11T08:21:13.433Z,30.43
2023-05-11T08:23:41.690Z,27.53
2023-05-11T08:26:10.451Z,24.43
2023-05-11T08:28:37.934Z,24.67
2023-05-11T08:31:05.681Z,24.67
2023-05-11T08:33:38.303Z,28.17
2023-05-11T08:36:07.162Z,28.87
2023-05-11T08:38:35.715Z,28.47
2023-05-11T08:41:03.540Z,30.93
2023-05-11T08:43:31.252Z,27.47
2023-05-11T08:46:03.969Z,28.07
2023-05-11T08:48:31.702Z,26.83
2023-05-11T08:50:59.644Z,25.93
2023-05-11T08:53:29.562Z,27.73
2023-05-11T08:55:58.901Z,28.53
2023-05-11T08:58:27.468Z,28.27
2023-05-11T09:00:55.381Z,26.03
2023-05-11T09:03:23.226Z,21.93
2023-05-11T09:05:51.125Z,26.03
2023-05-11T09:08:19.272Z,24.23
2023-05-11T09:10:46.895Z,23.30
2023-05-11T09:13:14.410Z,21.23
2023-05-11T09:15:42.102Z,21.90
2023-05-11T09:18:09.693Z,24.73
2023-05-11T09:20:39.293Z,25.77
2023-05-11T09:23:07.872Z,26.63
2023-05-11T09:25:35.450Z,25.70
2023-05-11T09:28:05.424Z,26.83
2023-05-11T09:30:34.450Z,25.13
2023-05-11T09:33:02.070Z,27.63
2023-05-11T09:35:30.592Z,30.03
2023-05-11T09:38:09.048Z,30.10
2023-05-11T09:40:37.746Z,29.93
2023-05-11T09:43:16.541Z,29.77
2023-05-11T09:45:44.885Z,28.77
2023-05-11T09:48:21.663Z,30.53
2023-05-11T09:50:50.231Z,31.17
2023-05-11T09:53:17.983Z,30.20
2023-05-11T09:55:52.309Z,33.40
2023-05-11T09:58:19.973Z,31.67
2023-05-11T10:00:50.861Z,33.77
2023-05-11T10:03:18.702Z,33.47
2023-05-11T10:05:59.586Z,33.87
2023-05-11T10:08:31.181Z,32.97
2023-05-11T10:10:58.992Z,34.17
2023-05-11T10:13:26.834Z,30.23
2023-05-11T10:15:58.868Z,31.43
2023-05-11T10:18:26.819Z,31.27
2023-05-11T10:20:54.517Z,25.40
2023-05-11T10:23:22.324Z,29.33
2023-05-11T10:25:51.192Z,27.20
2023-05-11T10:28:18.940Z,25.37
2023-05-11T10:30:46.546Z,26.40
2023-05-11T10:33:14.516Z,29.40
2023-05-11T10:35:42.220Z,29.43
2023-05-11T10:38:10.165Z,29.90
2023-05-11T10:40:42.782Z,27.70
2023-05-11T10:43:13.248Z,30.43
2023-05-11T10:45:43.770Z,24.60
2023-05-11T10:48:20.715Z,23.83
2023-05-11T10:51:06.780Z,23.13
2023-05-11T10:53:52.911Z,25.93
2023-05-11T10:56:39.072Z,25.63
2023-05-11T10:59:09.666Z,22.73
2023-05-11T11:01:38.452Z,24.70
2023-05-11T11:04:07.229Z,28.73
2023-05-11T11:06:35.827Z,27.47
2023-05-11T11:09:04.612Z,23.37
2023-05-11T11:11:39.479Z,22.43
2023-05-11T11:14:08.301Z,25.70
2023-05-11T11:16:36.888Z,23.60
2023-05-11T11:19:23.454Z,22.90
2023-05-11T11:21:53.454Z,24.30
2023-05-11T11:24:39.160Z,28.40
2023-05-11T11:27:07.654Z,26.70
2023-05-11T11:29:39.314Z,21.67
2023-05-11T11:32:22.035Z,21.40
2023-05-11T11:34:49.911Z,23.53
2023-05-11T11:37:17.668Z,21.67
2023-05-11T11:39:46.520Z,23.30
2023-05-11T11:42:14.937Z,24.70
2023-05-11T11:44:43.463Z,24.27
2023-05-11T11:47:17.113Z,22.13
2023-05-11T11:49:45.787Z,21.80
2023-05-11T11:52:28.729Z,20.37
2023-05-11T11:54:57.012Z,26.13
2023-05-11T11:57:30.311Z,19.73
2023-05-11T11:59:58.360Z,24.17
2023-05-11T12:02:26.821Z,25.77
2023-05-11T12:04:58.387Z,21.33
2023-05-11T12:07:26.709Z,24.57
2023-05-11T12:09:57.233Z,21.87
2023-05-11T12:12:24.932Z,22.73
2023-05-11T12:14:52.426Z,21.77
2023-05-11T12:17:27.185Z,23.53
2023-05-11T12:19:54.830Z,19.10
2023-05-11T12:22:23.367Z,21.30
2023-05-11T12:24:51.069Z,21.60
2023-05-11T12:27:18.849Z,19.73
2023-05-11T12:29:55.326Z,20.60
2023-05-11T12:32:26.700Z,21.03
2023-05-11T12:35:01.060Z,20.53
2023-05-11T12:37:30.098Z,22.30
2023-05-11T12:39:58.296Z,19.17
2023-05-11T12:42:25.976Z,19.97
2023-05-11T12:44:53.529Z,21.33
2023-05-11T12:47:21.216Z,21.23
2023-05-11T12:49:48.783Z,23.03
2023-05-11T12:52:16.345Z,24.37
2023-05-11T12:54:48.734Z,24.27
2023-05-11T12:57:29.447Z,21.90
2023-05-11T13:00:16.510Z,21.63
2023-05-11T13:02:45.517Z,21.03
2023-05-11T13:05:13.876Z,19.60
2023-05-11T13:07:41.489Z,23.10
2023-05-11T13:10:09.207Z,21.50
2023-05-11T13:12:36.855Z,22.83
2023-05-11T13:15:08.338Z,21.80
2023-05-11T13:17:39.460Z,24.20
2023-05-11T13:20:22.581Z,19.50
2023-05-11T13:22:50.741Z,20.27
2023-05-11T13:25:20.976Z,26.60
2023-05-11T13:27:48.836Z,22.07
2023-05-11T13:30:16.520Z,23.20
2023-05-11T13:32:44.174Z,26.23
2023-05-11T13:35:11.765Z,24.67
2023-05-11T13:37:39.346Z,28.37
2023-05-11T13:40:07.262Z,30.30
2023-05-11T13:42:34.875Z,29.57
2023-05-11T13:45:02.462Z,28.77
2023-05-11T13:47:30.152Z,27.93
2023-05-11T13:49:57.763Z,32.33
2023-05-11T13:52:25.327Z,31.57
2023-05-11T13:54:52.850Z,31.43
2023-05-11T13:57:21.635Z,32.37
2023-05-11T13:59:49.335Z,32.20
2023-05-11T14:02:16.943Z,31.57
2023-05-11T14:04:44.771Z,35.73
2023-05-11T14:07:12.485Z,37.17
2023-05-11T14:09:39.999Z,38.33
2023-05-11T14:12:07.737Z,40.37
2023-05-11T14:14:35.227Z,38.17
2023-05-11T14:17:02.937Z,39.70
2023-05-11T14:19:30.514Z,43.13
2023-05-11T14:21:58.150Z,43.70
2023-05-11T14:24:25.681Z,32.23
2023-05-11T14:26:53.351Z,36.77
2023-05-11T14:29:20.906Z,40.87
2023-05-11T14:31:49.062Z,40.83
2023-05-11T14:34:16.694Z,43.97
2023-05-11T14:36:44.268Z,42.33
2023-05-11T14:39:11.812Z,46.47
2023-05-11T14:41:39.346Z,42.00
2023-05-11T14:44:06.858Z,43.03
2023-05-11T14:46:34.449Z,40.73
2023-05-11T14:49:02.025Z,41.47
2023-05-11T14:51:29.642Z,36.13
2023-05-11T14:53:57.190Z,36.93
2023-05-11T14:56:24.770Z,38.90
2023-05-11T14:58:52.263Z,39.40
2023-05-11T15:01:19.809Z,39.93
2023-05-11T15:03:47.583Z,34.13
2023-05-11T15:06:15.245Z,37.57
2023-05-11T15:08:42.763Z,39.03
2023-05-11T15:11:10.354Z,36.83
2023-05-11T15:13:37.876Z,36.20
2023-05-11T15:16:05.597Z,34.80
2023-05-11T15:18:33.182Z,32.27
2023-05-11T15:21:00.761Z,31.13
2023-05-11T15:23:28.306Z,30.53
2023-05-11T15:25:55.945Z,30.00
2023-05-11T15:28:23.492Z,25.33
2023-05-11T15:30:51.096Z,31.83
2023-05-11T15:33:18.729Z,29.27
2023-05-11T15:35:46.333Z,32.50
2023-05-11T15:38:13.863Z,34.53
2023-05-11T15:40:41.416Z,36.23
2023-05-11T15:43:08.961Z,40.70
2023-05-11T15:45:36.750Z,39.00
2023-05-11T15:48:04.589Z,36.60
2023-05-11T15:50:32.295Z,34.87
2023-05-11T15:52:59.809Z,33.53
2023-05-11T15:55:27.432Z,29.80
2023-05-11T15:57:54.941Z,33.87
2023-05-11T16:00:22.509Z,37.23
2023-05-11T16:02:50.174Z,30.20
2023-05-11T16:05:17.816Z,32.00
2023-05-11T16:07:45.349Z,36.23
2023-05-11T16:10:12.940Z,37.23
2023-05-11T16:12:40.554Z,35.20
2023-05-11T16:15:08.511Z,35.00
2023-05-11T16:17:36.226Z,33.40
2023-05-11T16:20:04.265Z,32.47
2023-05-11T16:22:31.822Z,28.33
2023-05-11T16:24:59.462Z,30.03
2023-05-11T16:27:27.059Z,31.33
2023-05-11T16:29:54.614Z,28.77
2023-05-11T16:32:25.164Z,24.47
2023-05-11T16:34:53.656Z,32.27
2023-05-11T16:37:21.180Z,21.60
2023-05-11T16:39:48.784Z,19.90
2023-05-11T16:42:16.372Z,18.50
2023-05-11T16:44:43.953Z,16.70
2023-05-11T16:47:11.481Z,16.50
2023-05-11T16:49:39.099Z,19.47
2023-05-11T16:52:06.898Z,15.10
2023-05-11T16:54:35.813Z,20.43
2023-05-11T16:57:03.383Z,19.67
2023-05-11T16:59:30.979Z,27.33
2023-05-11T17:01:58.541Z,22.67
2023-05-11T17:04:26.110Z,23.07
2023-05-11T17:06:54.028Z,26.33
2023-05-11T17:09:21.552Z,24.80
2023-05-11T17:11:49.044Z,25.13
2023-05-11T17:14:16.738Z,28.23
2023-05-11T17:16:44.309Z,32.43
2023-05-11T17:19:12.197Z,22.10
2023-05-11T17:21:39.761Z,25.63
2023-05-11T17:24:07.555Z,23.77
2023-05-11T17:26:46.574Z,26.50
2023-05-11T17:29:16.351Z,29.97
2023-05-11T17:31:44.044Z,21.47
2023-05-11T17:34:11.941Z,18.93
2023-05-11T17:36:39.707Z,23.07
2023-05-11T17:39:07.330Z,21.07
2023-05-11T17:41:34.824Z,19.83
2023-05-11T17:44:02.402Z,21.37
2023-05-11T17:46:29.988Z,19.20
2023-05-11T17:48:58.048Z,20.27
2023-05-11T17:51:25.584Z,18.03
2023-05-11T17:53:53.292Z,15.67
2023-05-11T17:56:20.869Z,18.67
2023-05-11T17:58:48.472Z,17.87
2023-05-11T18:01:16.094Z,21.17
2023-05-11T18:03:44.088Z,22.60
2023-05-11T18:06:11.723Z,21.80
2023-05-11T18:08:39.336Z,20.80
2023-05-11T18:11:06.873Z,21.13
2023-05-11T18:13:34.497Z,16.37
2023-05-11T18:16:02.109Z,18.20
2023-05-11T18:18:29.875Z,20.33
2023-05-11T18:20:57.463Z,19.43
2023-05-11T18:23:25.011Z,21.10
2023-05-11T18:25:52.565Z,18.30
2023-05-11T18:28:20.119Z,17.17
2023-05-11T18:30:47.739Z,20.23
2023-05-11T18:33:15.329Z,17.90
2023-05-11T18:35:43.009Z,17.77
2023-05-11T18:38:10.488Z,15.20
2023-05-11T18:40:38.094Z,17.60
2023-05-11T18:43:05.683Z,17.37
2023-05-11T18:45:33.759Z,16.87
2023-05-11T18:48:01.488Z,17.30
2023-05-11T18:50:29.126Z,15.53
2023-05-11T18:52:57.163Z,17.13
2023-05-11T18:55:25.103Z,18.67
2023-05-11T18:57:52.937Z,17.63
2023-05-11T19:00:20.814Z,17.57
2023-05-11T19:02:48.628Z,20.53
2023-05-11T19:05:16.325Z,26.13
2023-05-11T19:07:43.876Z,23.97
2023-05-11T19:10:11.506Z,20.77
2023-05-11T19:12:39.087Z,24.27
2023-05-11T19:15:06.908Z,21.27
2023-05-11T19:17:34.418Z,23.97
2023-05-11T19:20:02.109Z,25.47
2023-05-11T19:22:29.696Z,26.83
2023-05-11T19:24:57.288Z,27.17
2023-05-11T19:27:24.825Z,28.57
2023-05-11T19:29:52.389Z,30.13
2023-05-11T19:32:19.952Z,30.33
2023-05-11T19:34:47.646Z,31.20
2023-05-11T19:37:15.205Z,31.13
2023-05-11T19:39:42.741Z,29.10
2023-05-11T19:42:10.830Z,31.40
2023-05-11T19:44:38.353Z,30.73
2023-05-11T19:47:05.964Z,30.20
2023-05-11T19:49:44.148Z,28.63
2023-05-11T19:52:16.017Z,31.03
2023-05-11T19:54:47.534Z,27.63
2023-05-11T19:57:15.128Z,32.77
2023-05-11T19:59:42.728Z,27.27
2023-05-11T20:02:10.211Z,31.33
2023-05-11T20:04:37.863Z,29.43
2023-05-11T20:07:05.381Z,26.47
2023-05-11T20:09:33.039Z,32.23
2023-05-11T20:12:00.595Z,28.90
2023-05-11T20:14:28.282Z,31.63
2023-05-11T20:16:55.794Z,29.60
2023-05-11T20:19:23.502Z,26.57
2023-05-11T20:21:51.041Z,23.37
2023-05-11T20:24:18.573Z,27.63
2023-05-11T20:26:46.099Z,30.73
2023-05-11T20:29:13.656Z,23.57
2023-05-11T20:31:41.215Z,30.60
2023-05-11T20:34:08.829Z,28.67
2023-05-11T20:36:36.460Z,27.37
2023-05-11T20:39:07.541Z,26.90
2023-05-11T20:41:35.158Z,29.43
2023-05-11T20:44:02.680Z,35.27
2023-05-11T20:46:30.289Z,29.30
2023-05-11T20:48:57.770Z,31.73
2023-05-11T20:51:25.326Z,32.83
2023-05-11T20:53:52.836Z,28.87
2023-05-11T20:56:20.398Z,29.63
2023-05-11T20:58:50.911Z,29.13
2023-05-11T21:01:18.537Z,36.83
2023-05-11T21:03:46.086Z,35.47
2023-05-11T21:06:13.648Z,26.17
2023-05-11T21:08:41.165Z,32.87
2023-05-11T21:11:08.751Z,45.93
2023-05-11T21:13:36.315Z,31.10
2023-05-11T21:16:04.301Z,26.77
2023-05-11T21:18:32.006Z,37.60
2023-05-11T21:20:59.748Z,23.93
2023-05-11T21:23:27.488Z,29.17
2023-05-11T21:25:55.527Z,27.33
2023-05-11T21:28:23.050Z,31.20
2023-05-11T21:30:50.654Z,30.30
2023-05-11T21:33:18.316Z,26.10
2023-05-11T21:35:46.092Z,32.73
2023-05-11T21:38:13.657Z,32.77
2023-05-11T21:40:44.433Z,34.87
2023-05-11T21:43:13.880Z,32.03
2023-05-11T21:45:41.671Z,34.03
2023-05-11T21:48:09.198Z,40.13
2023-05-11T21:50:36.722Z,36.93
2023-05-11T21:53:04.342Z,38.63
2023-05-11T21:55:31.960Z,35.07
2023-05-11T21:57:59.482Z,34.50
2023-05-11T22:00:27.053Z,39.43
2023-05-11T22:02:54.933Z,36.20
2023-05-11T22:05:22.611Z,46.90
2023-05-11T22:07:52.391Z,42.17
2023-05-11T22:10:21.661Z,54.67
2023-05-11T22:12:49.132Z,53.27
2023-05-11T22:15:16.784Z,46.00
2023-05-11T22:17:44.313Z,50.40
2023-05-11T22:20:11.953Z,56.13
2023-05-11T22:22:39.965Z,52.83
2023-05-11T22:25:07.874Z,41.43
2023-05-11T22:27:35.387Z,47.20
2023-05-11T22:30:03.075Z,59.03
2023-05-11T22:32:30.565Z,60.20
2023-05-11T22:34:59.202Z,55.50
2023-05-11T22:37:26.993Z,55.70
2023-05-11T22:39:55.281Z,54.07
2023-05-11T22:42:22.808Z,53.63
2023-05-11T22:44:50.363Z,47.23
2023-05-11T22:47:17.862Z,63.17
2023-05-11T22:49:45.436Z,66.47
2023-05-11T22:52:13.206Z,64.93
2023-05-11T22:54:40.738Z,90.03
2023-05-11T22:57:08.241Z,85.00
2023-05-11T22:59:35.798Z,68.13
2023-05-11T23:02:03.401Z,80.47
2023-05-11T23:04:34.526Z,67.37
2023-05-11T23:07:02.030Z,84.30
2023-05-11T23:09:29.616Z,143.93
2023-05-11T23:11:57.139Z,71.00
2023-05-11T23:14:24.733Z,63.33
2023-05-11T23:16:52.453Z,65.40
2023-05-11T23:19:20.036Z,55.67
2023-05-11T23:21:47.615Z,62.50
2023-05-11T23:24:15.198Z,75.87
2023-05-11T23:26:42.704Z,60.43
2023-05-11T23:29:10.353Z,61.10
2023-05-11T23:31:37.981Z,66.60
2023-05-11T23:34:05.541Z,54.00
2023-05-11T23:36:33.045Z,96.37
2023-05-11T23:39:00.599Z,58.50
2023-05-11T23:41:30.902Z,76.80
2023-05-11T23:43:58.495Z,68.03
2023-05-11T23:46:26.158Z,65.10
2023-05-11T23:48:53.712Z,71.53
2023-05-11T23:51:21.216Z,85.13
2023-05-11T23:53:48.789Z,105.40
2023-05-11T23:56:16.306Z,71.17
2023-05-11T23:58:43.885Z,77.60
